Ambridge, PA

11:33 AM EDT on July 07, 2015 (GMT -0400)
Crestmont Village - Hopewell Twp | | Change Station
CLOSE
Current Station
Personal Weather Station
Location: Aliquippa, PA
Elevation: 1192 ft
Nearby Weather Stations

Elev 1192 ft 40.59 °N, 80.27 °W | Updated 12 minutes ago

Partly Cloudy
Partly Cloudy
81.7 °F
Feels Like 86 °F
N
10.9
Wind Variable Wind from SSW

Today
High -- | Low -- °F
--% Chance of Precip.
Yesterday
High -- | Low -- °F
Precip. -- in
5:57 AM 8:54 PM
Waning Gibbous, 64% visible
Pressure 30.03 in
Visibility 10.0 miles
Clouds Scattered Clouds 2000 ft
Mostly Cloudy 2800 ft
Heat Index 86 °F
Dew Point 71 °F
Humidity 70%
Rainfall 0.00 in
Snow Depth Not available.
UV 5 out of 12
Pollen 3.40 out of 12
Air Quality Not available.
Flu Activity Not available.
SPECI KPIT 071511Z 21008KT 10SM SCT020 BKN028 27/21 A3003 RMK AO2 T02670206

More Conditions Fewer Conditions

Pressure 30.03 in
Visibility 10.0 miles
Clouds Scattered Clouds 2000 ft
Mostly Cloudy 2800 ft
Heat Index 86 °F
Dew Point 71 °F
Humidity 70%
Rainfall 0.00 in
Snow Depth Not available.
UV 5 out of 12
Pollen 3.40 out of 12
Air Quality Not available.
Flu Activity Not available.
SPECI KPIT 071511Z 21008KT 10SM SCT020 BKN028 27/21 A3003 RMK AO2 T02670206

More Conditions Fewer Conditions

10-Day Weather Forecast

×

Almanac

Astronomy

Jul. 07, 2015 Rise Set
Actual Time
Civil Twilight
Nautical Twilight
Astronomical Twilight
Moon
Length of Visible Light
Length of Day
Tomorrow will be .
, % of the Moon is Illuminated

Today's Extremes

State Highs State Lows

Community

WunderPhotos

Upload Photos

1,835,818 photos uploaded!

WunderBlogs® & News

Nearby

Air Quality

  Air Quality AQ Index Pollutant
Not available.

Snow Depth

Station Depth Elevation

Earthquake Activity

City Distance Mag. Time & Date
Minimum magnitude displayed is 2.5.

Coastal Water Temperatures

Place Temperature

Stations

Nearby Weather Stations

Station Location Temp. Windchill Dew Point Humidity Wind Precip. Elev Updated Type